sensor_id;sensor_type;location;lat;lon;timestamp;temperature;humidity
6690;DHT22;3382;51.576;8.076;2023-06-14T00:01:52;18.20;99.90
6690;DHT22;3382;51.576;8.076;2023-06-14T00:04:17;18.20;99.90
6690;DHT22;3382;51.576;8.076;2023-06-14T00:06:44;18.20;99.90
6690;DHT22;3382;51.576;8.076;2023-06-14T00:09:14;18.10;99.90
6690;DHT22;3382;51.576;8.076;2023-06-14T00:11:41;18.10;99.90
6690;DHT22;3382;51.576;8.076;2023-06-14T00:14:06;18.10;99.90
6690;DHT22;3382;51.576;8.076;2023-06-14T00:16:32;18.00;99.90
6690;DHT22;3382;51.576;8.076;2023-06-14T00:18:59;18.00;99.90
6690;DHT22;3382;51.576;8.076;2023-06-14T00:21:24;17.90;99.90
6690;DHT22;3382;51.576;8.076;2023-06-14T00:23:50;17.90;99.90
6690;DHT22;3382;51.576;8.076;2023-06-14T00:26:15;17.90;99.90
6690;DHT22;3382;51.576;8.076;2023-06-14T00:28:41;17.90;99.90
6690;DHT22;3382;51.576;8.076;2023-06-14T00:31:07;17.80;99.90
6690;DHT22;3382;51.576;8.076;2023-06-14T00:33:33;17.80;99.90
6690;DHT22;3382;51.576;8.076;2023-06-14T00:35:58;17.80;99.90
6690;DHT22;3382;51.576;8.076;2023-06-14T00:38:24;17.80;99.90
6690;DHT22;3382;51.576;8.076;2023-06-14T00:40:49;18.00;99.90
6690;DHT22;3382;51.576;8.076;2023-06-14T00:43:15;17.90;99.90
6690;DHT22;3382;51.576;8.076;2023-06-14T00:45:41;17.70;99.90
6690;DHT22;3382;51.576;8.076;2023-06-14T00:48:07;17.70;99.90
6690;DHT22;3382;51.576;8.076;2023-06-14T00:50:34;17.70;99.90
6690;DHT22;3382;51.576;8.076;2023-06-14T00:53:00;17.70;99.90
6690;DHT22;3382;51.576;8.076;2023-06-14T00:55:27;17.70;99.90
6690;DHT22;3382;51.576;8.076;2023-06-14T00:57:56;17.60;99.90
6690;DHT22;3382;51.576;8.076;2023-06-14T01:00:22;17.60;99.90
6690;DHT22;3382;51.576;8.076;2023-06-14T01:02:48;17.60;99.90
6690;DHT22;3382;51.576;8.076;2023-06-14T01:05:15;17.50;99.90
6690;DHT22;3382;51.576;8.076;2023-06-14T01:13:38;17.40;99.90
6690;DHT22;3382;51.576;8.076;2023-06-14T01:16:05;17.30;99.90
6690;DHT22;3382;51.576;8.076;2023-06-14T01:18:32;17.30;99.90
6690;DHT22;3382;51.576;8.076;2023-06-14T01:20:59;17.30;99.90
6690;DHT22;3382;51.576;8.076;2023-06-14T01:23:24;17.20;99.90
6690;DHT22;3382;51.576;8.076;2023-06-14T01:25:50;17.20;99.90
6690;DHT22;3382;51.576;8.076;2023-06-14T01:28:20;17.10;99.90
6690;DHT22;3382;51.576;8.076;2023-06-14T01:30:49;17.10;99.90
6690;DHT22;3382;51.576;8.076;2023-06-14T01:33:18;17.10;99.90
6690;DHT22;3382;51.576;8.076;2023-06-14T01:35:49;17.00;99.90
6690;DHT22;3382;51.576;8.076;2023-06-14T01:38:17;17.30;99.90
6690;DHT22;3382;51.576;8.076;2023-06-14T01:40:45;16.90;99.90
6690;DHT22;3382;51.576;8.076;2023-06-14T01:43:12;16.90;99.90
6690;DHT22;3382;51.576;8.076;2023-06-14T01:45:40;16.90;99.90
6690;DHT22;3382;51.576;8.076;2023-06-14T01:48:07;16.90;99.90
6690;DHT22;3382;51.576;8.076;2023-06-14T01:50:32;16.80;99.90
6690;DHT22;3382;51.576;8.076;2023-06-14T01:52:59;16.80;99.90
6690;DHT22;3382;51.576;8.076;2023-06-14T01:55:25;16.80;99.90
6690;DHT22;3382;51.576;8.076;2023-06-14T01:57:51;16.80;99.90
6690;DHT22;3382;51.576;8.076;2023-06-14T02:00:17;16.80;99.90
6690;DHT22;3382;51.576;8.076;2023-06-14T02:02:43;16.80;99.90
6690;DHT22;3382;51.576;8.076;2023-06-14T02:05:09;16.80;99.90
6690;DHT22;3382;51.576;8.076;2023-06-14T02:07:36;16.70;99.90
6690;DHT22;3382;51.576;8.076;2023-06-14T02:10:02;16.70;99.90
6690;DHT22;3382;51.576;8.076;2023-06-14T02:12:28;16.60;99.90
6690;DHT22;3382;51.576;8.076;2023-06-14T02:14:53;16.60;99.90
6690;DHT22;3382;51.576;8.076;2023-06-14T02:17:19;16.50;99.90
6690;DHT22;3382;51.576;8.076;2023-06-14T02:19:45;16.60;99.90
6690;DHT22;3382;51.576;8.076;2023-06-14T02:22:11;16.60;99.90
6690;DHT22;3382;51.576;8.076;2023-06-14T02:24:36;16.50;99.90
6690;DHT22;3382;51.576;8.076;2023-06-14T02:27:02;16.50;99.90
6690;DHT22;3382;51.576;8.076;2023-06-14T02:29:29;16.40;99.90
6690;DHT22;3382;51.576;8.076;2023-06-14T02:31:54;16.40;99.90
6690;DHT22;3382;51.576;8.076;2023-06-14T02:34:20;16.40;99.90
6690;DHT22;3382;51.576;8.076;2023-06-14T02:36:47;16.40;99.90
6690;DHT22;3382;51.576;8.076;2023-06-14T02:39:13;16.40;99.90
6690;DHT22;3382;51.576;8.076;2023-06-14T02:41:39;16.30;99.90
6690;DHT22;3382;51.576;8.076;2023-06-14T02:44:05;16.30;99.90
6690;DHT22;3382;51.576;8.076;2023-06-14T02:46:32;16.20;99.90
6690;DHT22;3382;51.576;8.076;2023-06-14T02:48:57;16.20;99.90
6690;DHT22;3382;51.576;8.076;2023-06-14T02:51:23;16.20;99.90
6690;DHT22;3382;51.576;8.076;2023-06-14T02:53:48;16.20;99.90
6690;DHT22;3382;51.576;8.076;2023-06-14T02:56:14;16.10;99.90
6690;DHT22;3382;51.576;8.076;2023-06-14T02:58:42;16.10;99.90
6690;DHT22;3382;51.576;8.076;2023-06-14T03:01:08;16.10;99.90
6690;DHT22;3382;51.576;8.076;2023-06-14T03:03:38;16.00;99.90
6690;DHT22;3382;51.576;8.076;2023-06-14T03:06:03;16.00;99.90
6690;DHT22;3382;51.576;8.076;2023-06-14T03:08:31;16.00;99.90
6690;DHT22;3382;51.576;8.076;2023-06-14T03:11:03;16.00;99.90
6690;DHT22;3382;51.576;8.076;2023-06-14T03:13:30;15.90;99.90
6690;DHT22;3382;51.576;8.076;2023-06-14T03:15:57;15.90;99.90
6690;DHT22;3382;51.576;8.076;2023-06-14T03:18:23;15.90;99.90
6690;DHT22;3382;51.576;8.076;2023-06-14T03:20:48;15.90;99.90
6690;DHT22;3382;51.576;8.076;2023-06-14T03:23:16;15.90;99.90
6690;DHT22;3382;51.576;8.076;2023-06-14T03:25:43;15.90;99.90
6690;DHT22;3382;51.576;8.076;2023-06-14T03:28:08;15.80;99.90
6690;DHT22;3382;51.576;8.076;2023-06-14T03:30:34;15.80;99.90
6690;DHT22;3382;51.576;8.076;2023-06-14T03:32:59;15.80;99.90
6690;DHT22;3382;51.576;8.076;2023-06-14T03:35:28;15.80;99.90
6690;DHT22;3382;51.576;8.076;2023-06-14T03:37:54;15.90;99.90
6690;DHT22;3382;51.576;8.076;2023-06-14T03:40:21;15.70;99.90
6690;DHT22;3382;51.576;8.076;2023-06-14T03:42:47;15.70;99.90
6690;DHT22;3382;51.576;8.076;2023-06-14T03:45:12;15.70;99.90
6690;DHT22;3382;51.576;8.076;2023-06-14T03:47:38;15.70;99.90
6690;DHT22;3382;51.576;8.076;2023-06-14T03:50:04;15.70;99.90
6690;DHT22;3382;51.576;8.076;2023-06-14T03:52:31;15.70;99.90
6690;DHT22;3382;51.576;8.076;2023-06-14T03:54:56;15.70;99.90
6690;DHT22;3382;51.576;8.076;2023-06-14T03:57:23;15.70;99.90
6690;DHT22;3382;51.576;8.076;2023-06-14T03:59:49;15.80;99.90
6690;DHT22;3382;51.576;8.076;2023-06-14T04:02:15;15.80;99.90
6690;DHT22;3382;51.576;8.076;2023-06-14T04:04:42;15.90;99.90
6690;DHT22;3382;51.576;8.076;2023-06-14T04:07:10;16.10;99.90
6690;DHT22;3382;51.576;8.076;2023-06-14T04:09:37;16.20;99.90
6690;DHT22;3382;51.576;8.076;2023-06-14T04:12:03;16.60;99.90
6690;DHT22;3382;51.576;8.076;2023-06-14T04:14:29;16.80;99.90
6690;DHT22;3382;51.576;8.076;2023-06-14T04:16:56;17.10;99.90
6690;DHT22;3382;51.576;8.076;2023-06-14T04:19:21;17.50;99.90
6690;DHT22;3382;51.576;8.076;2023-06-14T04:21:47;17.80;99.90
6690;DHT22;3382;51.576;8.076;2023-06-14T04:24:13;18.00;99.90
6690;DHT22;3382;51.576;8.076;2023-06-14T04:26:43;18.10;99.90
6690;DHT22;3382;51.576;8.076;2023-06-14T04:29:14;18.10;99.90
6690;DHT22;3382;51.576;8.076;2023-06-14T04:31:41;18.20;99.90
6690;DHT22;3382;51.576;8.076;2023-06-14T04:34:07;18.20;99.90
6690;DHT22;3382;51.576;8.076;2023-06-14T04:36:33;18.10;99.90
6690;DHT22;3382;51.576;8.076;2023-06-14T04:39:07;17.70;99.90
6690;DHT22;3382;51.576;8.076;2023-06-14T04:41:33;17.90;99.90
6690;DHT22;3382;51.576;8.076;2023-06-14T04:44:00;17.90;99.90
6690;DHT22;3382;51.576;8.076;2023-06-14T04:46:30;17.90;99.90
6690;DHT22;3382;51.576;8.076;2023-06-14T04:48:57;18.00;99.90
6690;DHT22;3382;51.576;8.076;2023-06-14T04:51:28;17.70;99.90
6690;DHT22;3382;51.576;8.076;2023-06-14T04:53:58;18.20;99.90
6690;DHT22;3382;51.576;8.076;2023-06-14T04:56:24;18.40;99.90
6690;DHT22;3382;51.576;8.076;2023-06-14T04:58:51;18.80;99.90
6690;DHT22;3382;51.576;8.076;2023-06-14T05:01:18;19.10;99.90
6690;DHT22;3382;51.576;8.076;2023-06-14T05:03:44;19.30;99.90
6690;DHT22;3382;51.576;8.076;2023-06-14T05:06:10;19.60;99.90
6690;DHT22;3382;51.576;8.076;2023-06-14T05:08:37;19.90;99.90
6690;DHT22;3382;51.576;8.076;2023-06-14T05:11:03;20.10;99.90
6690;DHT22;3382;51.576;8.076;2023-06-14T05:13:28;20.30;99.90
6690;DHT22;3382;51.576;8.076;2023-06-14T05:15:54;20.20;99.90
6690;DHT22;3382;51.576;8.076;2023-06-14T05:18:19;20.20;99.90
6690;DHT22;3382;51.576;8.076;2023-06-14T05:20:45;20.10;99.90
6690;DHT22;3382;51.576;8.076;2023-06-14T05:23:11;20.10;99.90
6690;DHT22;3382;51.576;8.076;2023-06-14T05:25:44;20.30;99.90
6690;DHT22;3382;51.576;8.076;2023-06-14T05:28:10;20.00;99.90
6690;DHT22;3382;51.576;8.076;2023-06-14T05:30:37;20.10;99.90
6690;DHT22;3382;51.576;8.076;2023-06-14T05:33:03;19.90;99.90
6690;DHT22;3382;51.576;8.076;2023-06-14T05:35:29;19.80;99.90
6690;DHT22;3382;51.576;8.076;2023-06-14T05:37:55;19.70;99.90
6690;DHT22;3382;51.576;8.076;2023-06-14T05:40:20;19.60;99.90
6690;DHT22;3382;51.576;8.076;2023-06-14T05:42:46;19.60;99.90
6690;DHT22;3382;51.576;8.076;2023-06-14T05:45:11;19.60;99.90
6690;DHT22;3382;51.576;8.076;2023-06-14T05:47:37;19.60;99.90
6690;DHT22;3382;51.576;8.076;2023-06-14T05:50:03;19.60;99.90
6690;DHT22;3382;51.576;8.076;2023-06-14T05:52:29;19.50;99.90
6690;DHT22;3382;51.576;8.076;2023-06-14T05:54:55;19.50;99.90
6690;DHT22;3382;51.576;8.076;2023-06-14T05:57:20;19.50;99.90
6690;DHT22;3382;51.576;8.076;2023-06-14T05:59:46;19.60;99.90
6690;DHT22;3382;51.576;8.076;2023-06-14T06:02:12;19.60;99.90
6690;DHT22;3382;51.576;8.076;2023-06-14T06:04:37;19.70;99.90
6690;DHT22;3382;51.576;8.076;2023-06-14T06:07:03;20.10;99.90
6690;DHT22;3382;51.576;8.076;2023-06-14T06:09:29;20.60;99.90
6690;DHT22;3382;51.576;8.076;2023-06-14T06:11:55;21.10;99.90
6690;DHT22;3382;51.576;8.076;2023-06-14T06:14:21;21.30;99.90
6690;DHT22;3382;51.576;8.076;2023-06-14T06:16:47;20.90;99.90
6690;DHT22;3382;51.576;8.076;2023-06-14T06:19:12;20.70;99.90
6690;DHT22;3382;51.576;8.076;2023-06-14T06:21:38;20.60;99.90
6690;DHT22;3382;51.576;8.076;2023-06-14T06:24:05;20.80;99.90
6690;DHT22;3382;51.576;8.076;2023-06-14T06:26:31;20.90;99.90
6690;DHT22;3382;51.576;8.076;2023-06-14T06:28:58;20.80;99.90
6690;DHT22;3382;51.576;8.076;2023-06-14T06:31:24;20.80;99.90
6690;DHT22;3382;51.576;8.076;2023-06-14T06:33:51;20.70;99.90
6690;DHT22;3382;51.576;8.076;2023-06-14T06:36:17;20.60;99.90
6690;DHT22;3382;51.576;8.076;2023-06-14T06:38:42;20.60;99.90
6690;DHT22;3382;51.576;8.076;2023-06-14T06:41:08;20.60;99.90
6690;DHT22;3382;51.576;8.076;2023-06-14T06:43:33;20.60;99.90
6690;DHT22;3382;51.576;8.076;2023-06-14T06:45:59;20.70;99.90
6690;DHT22;3382;51.576;8.076;2023-06-14T06:48:25;20.70;99.90
6690;DHT22;3382;51.576;8.076;2023-06-14T06:50:50;20.60;99.90
6690;DHT22;3382;51.576;8.076;2023-06-14T06:53:16;20.50;99.90
6690;DHT22;3382;51.576;8.076;2023-06-14T06:55:44;20.50;99.90
6690;DHT22;3382;51.576;8.076;2023-06-14T06:58:09;20.60;99.90
6690;DHT22;3382;51.576;8.076;2023-06-14T07:00:35;20.60;99.90
6690;DHT22;3382;51.576;8.076;2023-06-14T07:03:01;20.70;99.90
6690;DHT22;3382;51.576;8.076;2023-06-14T07:05:26;20.70;99.90
6690;DHT22;3382;51.576;8.076;2023-06-14T07:07:52;20.80;99.90
6690;DHT22;3382;51.576;8.076;2023-06-14T07:10:18;20.80;99.90
6690;DHT22;3382;51.576;8.076;2023-06-14T07:12:44;20.90;99.90
6690;DHT22;3382;51.576;8.076;2023-06-14T07:15:10;21.10;99.90
6690;DHT22;3382;51.576;8.076;2023-06-14T07:17:36;21.00;99.90
6690;DHT22;3382;51.576;8.076;2023-06-14T07:20:03;20.90;99.90
6690;DHT22;3382;51.576;8.076;2023-06-14T07:22:42;20.90;99.90
6690;DHT22;3382;51.576;8.076;2023-06-14T07:25:09;20.90;99.90
6690;DHT22;3382;51.576;8.076;2023-06-14T07:27:37;20.80;99.90
6690;DHT22;3382;51.576;8.076;2023-06-14T07:30:03;20.90;99.90
6690;DHT22;3382;51.576;8.076;2023-06-14T07:32:29;21.00;99.90
6690;DHT22;3382;51.576;8.076;2023-06-14T07:34:55;20.90;99.90
6690;DHT22;3382;51.576;8.076;2023-06-14T07:37:20;21.10;99.90
6690;DHT22;3382;51.576;8.076;2023-06-14T07:39:46;21.20;99.90
6690;DHT22;3382;51.576;8.076;2023-06-14T07:42:12;21.20;99.90
6690;DHT22;3382;51.576;8.076;2023-06-14T07:44:37;21.20;99.90
6690;DHT22;3382;51.576;8.076;2023-06-14T07:47:03;21.30;99.90
6690;DHT22;3382;51.576;8.076;2023-06-14T07:49:29;21.30;99.90
6690;DHT22;3382;51.576;8.076;2023-06-14T07:51:55;21.30;99.90
6690;DHT22;3382;51.576;8.076;2023-06-14T07:54:20;21.40;99.90
6690;DHT22;3382;51.576;8.076;2023-06-14T07:56:50;21.40;99.90
6690;DHT22;3382;51.576;8.076;2023-06-14T07:59:16;21.50;99.90
6690;DHT22;3382;51.576;8.076;2023-06-14T08:01:41;21.50;99.90
6690;DHT22;3382;51.576;8.076;2023-06-14T08:04:12;21.60;99.90
6690;DHT22;3382;51.576;8.076;2023-06-14T08:06:38;21.60;99.90
6690;DHT22;3382;51.576;8.076;2023-06-14T08:09:04;21.60;99.90
6690;DHT22;3382;51.576;8.076;2023-06-14T08:11:30;21.80;99.90
6690;DHT22;3382;51.576;8.076;2023-06-14T08:13:56;21.60;99.90
6690;DHT22;3382;51.576;8.076;2023-06-14T08:16:22;21.60;99.90
6690;DHT22;3382;51.576;8.076;2023-06-14T08:18:48;21.70;99.90
6690;DHT22;3382;51.576;8.076;2023-06-14T08:21:14;21.80;99.90
6690;DHT22;3382;51.576;8.076;2023-06-14T08:23:40;22.00;99.90
6690;DHT22;3382;51.576;8.076;2023-06-14T08:26:08;22.20;99.90
6690;DHT22;3382;51.576;8.076;2023-06-14T08:28:34;22.20;99.90
6690;DHT22;3382;51.576;8.076;2023-06-14T08:31:00;22.10;99.90
6690;DHT22;3382;51.576;8.076;2023-06-14T08:33:25;22.00;99.90
6690;DHT22;3382;51.576;8.076;2023-06-14T08:35:51;22.10;99.90
6690;DHT22;3382;51.576;8.076;2023-06-14T08:38:16;22.20;99.90
6690;DHT22;3382;51.576;8.076;2023-06-14T08:40:42;22.30;99.90
6690;DHT22;3382;51.576;8.076;2023-06-14T08:43:08;22.30;99.90
6690;DHT22;3382;51.576;8.076;2023-06-14T08:45:33;22.30;99.90
6690;DHT22;3382;51.576;8.076;2023-06-14T08:47:59;22.60;99.90
6690;DHT22;3382;51.576;8.076;2023-06-14T08:50:26;22.50;99.00
6690;DHT22;3382;51.576;8.076;2023-06-14T08:52:54;22.40;97.90
6690;DHT22;3382;51.576;8.076;2023-06-14T08:55:22;22.40;98.10
6690;DHT22;3382;51.576;8.076;2023-06-14T08:57:51;22.50;98.00
6690;DHT22;3382;51.576;8.076;2023-06-14T09:00:19;22.60;97.50
6690;DHT22;3382;51.576;8.076;2023-06-14T09:02:46;22.50;98.10
6690;DHT22;3382;51.576;8.076;2023-06-14T09:05:12;22.80;97.50
6690;DHT22;3382;51.576;8.076;2023-06-14T09:07:42;22.90;97.00
6690;DHT22;3382;51.576;8.076;2023-06-14T09:10:12;23.00;96.90
6690;DHT22;3382;51.576;8.076;2023-06-14T09:12:38;23.10;99.90
6690;DHT22;3382;51.576;8.076;2023-06-14T09:15:05;23.40;99.90
6690;DHT22;3382;51.576;8.076;2023-06-14T09:17:36;23.50;98.30
6690;DHT22;3382;51.576;8.076;2023-06-14T09:20:04;23.60;97.40
6690;DHT22;3382;51.576;8.076;2023-06-14T09:22:35;23.50;95.70
6690;DHT22;3382;51.576;8.076;2023-06-14T09:25:01;23.50;95.50
6690;DHT22;3382;51.576;8.076;2023-06-14T09:27:28;23.70;96.90
6690;DHT22;3382;51.576;8.076;2023-06-14T09:29:54;23.80;96.10
6690;DHT22;3382;51.576;8.076;2023-06-14T09:32:21;24.00;97.20
6690;DHT22;3382;51.576;8.076;2023-06-14T09:34:47;24.10;95.30
6690;DHT22;3382;51.576;8.076;2023-06-14T09:37:13;24.10;95.00
6690;DHT22;3382;51.576;8.076;2023-06-14T09:39:51;24.20;96.10
6690;DHT22;3382;51.576;8.076;2023-06-14T09:42:17;24.30;94.70
6690;DHT22;3382;51.576;8.076;2023-06-14T09:44:49;24.40;93.80
6690;DHT22;3382;51.576;8.076;2023-06-14T09:47:15;24.40;94.20
6690;DHT22;3382;51.576;8.076;2023-06-14T09:49:42;24.50;94.00
6690;DHT22;3382;51.576;8.076;2023-06-14T09:52:13;24.40;92.10
6690;DHT22;3382;51.576;8.076;2023-06-14T09:54:41;24.40;92.40
6690;DHT22;3382;51.576;8.076;2023-06-14T09:57:12;24.50;91.90
6690;DHT22;3382;51.576;8.076;2023-06-14T09:59:43;24.50;92.10
6690;DHT22;3382;51.576;8.076;2023-06-14T10:02:18;24.50;91.20
6690;DHT22;3382;51.576;8.076;2023-06-14T10:04:55;24.50;91.40
6690;DHT22;3382;51.576;8.076;2023-06-14T10:07:25;24.60;93.70
6690;DHT22;3382;51.576;8.076;2023-06-14T10:09:53;24.80;93.50
6690;DHT22;3382;51.576;8.076;2023-06-14T10:12:19;24.80;94.00
6690;DHT22;3382;51.576;8.076;2023-06-14T10:14:50;24.80;91.70
6690;DHT22;3382;51.576;8.076;2023-06-14T10:17:23;24.70;90.50
6690;DHT22;3382;51.576;8.076;2023-06-14T10:22:53;24.90;91.20
6690;DHT22;3382;51.576;8.076;2023-06-14T10:25:28;24.90;90.50
6690;DHT22;3382;51.576;8.076;2023-06-14T10:28:23;25.00;92.10
6690;DHT22;3382;51.576;8.076;2023-06-14T10:33:29;25.00;90.60
6690;DHT22;3382;51.576;8.076;2023-06-14T10:41:35;24.90;90.20
6690;DHT22;3382;51.576;8.076;2023-06-14T10:44:31;25.10;91.50
6690;DHT22;3382;51.576;8.076;2023-06-14T10:47:01;24.90;86.00
6690;DHT22;3382;51.576;8.076;2023-06-14T10:49:43;25.00;92.00
6690;DHT22;3382;51.576;8.076;2023-06-14T10:52:18;25.10;91.10
6690;DHT22;3382;51.576;8.076;2023-06-14T10:57:34;25.20;90.00
6690;DHT22;3382;51.576;8.076;2023-06-14T11:00:01;25.10;85.90
6690;DHT22;3382;51.576;8.076;2023-06-14T11:02:45;25.10;85.50
6690;DHT22;3382;51.576;8.076;2023-06-14T11:05:14;25.10;84.70
6690;DHT22;3382;51.576;8.076;2023-06-14T11:10:39;25.10;85.20
6690;DHT22;3382;51.576;8.076;2023-06-14T11:13:06;25.30;86.10
6690;DHT22;3382;51.576;8.076;2023-06-14T11:15:33;25.20;83.70
6690;DHT22;3382;51.576;8.076;2023-06-14T11:18:07;25.40;91.00
6690;DHT22;3382;51.576;8.076;2023-06-14T11:20:34;25.60;90.10
6690;DHT22;3382;51.576;8.076;2023-06-14T11:23:01;25.60;87.30
6690;DHT22;3382;51.576;8.076;2023-06-14T11:25:27;25.50;85.60
6690;DHT22;3382;51.576;8.076;2023-06-14T11:27:56;25.60;88.60
6690;DHT22;3382;51.576;8.076;2023-06-14T11:30:22;25.50;87.70
6690;DHT22;3382;51.576;8.076;2023-06-14T11:32:49;25.50;89.80
6690;DHT22;3382;51.576;8.076;2023-06-14T11:35:16;25.40;83.50
6690;DHT22;3382;51.576;8.076;2023-06-14T11:37:41;25.30;86.80
6690;DHT22;3382;51.576;8.076;2023-06-14T11:40:09;25.30;85.70
6690;DHT22;3382;51.576;8.076;2023-06-14T11:42:36;25.40;91.90
6690;DHT22;3382;51.576;8.076;2023-06-14T11:45:03;25.30;85.70
6690;DHT22;3382;51.576;8.076;2023-06-14T11:47:33;25.20;85.60
6690;DHT22;3382;51.576;8.076;2023-06-14T11:50:00;25.10;88.20
6690;DHT22;3382;51.576;8.076;2023-06-14T11:52:26;25.20;85.60
6690;DHT22;3382;51.576;8.076;2023-06-14T11:54:53;25.10;83.90
6690;DHT22;3382;51.576;8.076;2023-06-14T11:57:19;25.00;82.60
6690;DHT22;3382;51.576;8.076;2023-06-14T11:59:45;25.20;90.80
6690;DHT22;3382;51.576;8.076;2023-06-14T12:02:18;25.20;89.60
6690;DHT22;3382;51.576;8.076;2023-06-14T12:04:47;25.20;84.60
6690;DHT22;3382;51.576;8.076;2023-06-14T12:07:14;25.20;86.30
6690;DHT22;3382;51.576;8.076;2023-06-14T12:10:04;25.20;82.40
6690;DHT22;3382;51.576;8.076;2023-06-14T12:12:35;25.20;86.10
6690;DHT22;3382;51.576;8.076;2023-06-14T12:15:03;25.00;82.50
6690;DHT22;3382;51.576;8.076;2023-06-14T12:17:35;25.20;86.20
6690;DHT22;3382;51.576;8.076;2023-06-14T12:20:11;24.90;79.60
6690;DHT22;3382;51.576;8.076;2023-06-14T12:23:02;24.80;80.40
6690;DHT22;3382;51.576;8.076;2023-06-14T12:25:37;25.00;87.20
6690;DHT22;3382;51.576;8.076;2023-06-14T12:28:06;25.10;83.60
6690;DHT22;3382;51.576;8.076;2023-06-14T12:30:32;25.30;91.10
6690;DHT22;3382;51.576;8.076;2023-06-14T12:32:58;25.20;82.00
6690;DHT22;3382;51.576;8.076;2023-06-14T12:35:23;25.10;83.00
6690;DHT22;3382;51.576;8.076;2023-06-14T12:37:49;25.10;81.30
6690;DHT22;3382;51.576;8.076;2023-06-14T12:40:14;25.10;81.30
6690;DHT22;3382;51.576;8.076;2023-06-14T12:42:41;25.10;81.50
6690;DHT22;3382;51.576;8.076;2023-06-14T12:45:08;25.10;80.80
6690;DHT22;3382;51.576;8.076;2023-06-14T12:47:34;25.20;80.10
6690;DHT22;3382;51.576;8.076;2023-06-14T12:50:01;25.30;79.70
6690;DHT22;3382;51.576;8.076;2023-06-14T12:52:26;25.30;80.40
6690;DHT22;3382;51.576;8.076;2023-06-14T12:54:52;25.50;83.40
6690;DHT22;3382;51.576;8.076;2023-06-14T12:57:18;25.50;82.10
6690;DHT22;3382;51.576;8.076;2023-06-14T12:59:43;25.50;79.20
6690;DHT22;3382;51.576;8.076;2023-06-14T13:04:37;25.60;78.80
6690;DHT22;3382;51.576;8.076;2023-06-14T13:07:03;25.70;82.40
6690;DHT22;3382;51.576;8.076;2023-06-14T13:09:29;25.80;77.60
6690;DHT22;3382;51.576;8.076;2023-06-14T13:11:55;25.80;77.40
6690;DHT22;3382;51.576;8.076;2023-06-14T13:14:20;25.80;76.20
6690;DHT22;3382;51.576;8.076;2023-06-14T13:16:46;25.90;82.80
6690;DHT22;3382;51.576;8.076;2023-06-14T13:19:11;26.10;83.00
6690;DHT22;3382;51.576;8.076;2023-06-14T13:21:37;26.10;77.10
6690;DHT22;3382;51.576;8.076;2023-06-14T13:24:03;26.00;74.20
6690;DHT22;3382;51.576;8.076;2023-06-14T13:26:28;25.90;74.20
6690;DHT22;3382;51.576;8.076;2023-06-14T13:28:54;26.00;75.80
6690;DHT22;3382;51.576;8.076;2023-06-14T13:31:19;26.00;79.50
6690;DHT22;3382;51.576;8.076;2023-06-14T13:33:45;26.10;77.30
6690;DHT22;3382;51.576;8.076;2023-06-14T13:36:11;26.10;76.30
6690;DHT22;3382;51.576;8.076;2023-06-14T13:38:36;26.00;71.50
6690;DHT22;3382;51.576;8.076;2023-06-14T13:41:02;26.00;72.10
6690;DHT22;3382;51.576;8.076;2023-06-14T13:43:28;26.00;72.80
6690;DHT22;3382;51.576;8.076;2023-06-14T13:45:54;25.80;69.30
6690;DHT22;3382;51.576;8.076;2023-06-14T13:48:19;25.80;69.60
6690;DHT22;3382;51.576;8.076;2023-06-14T13:50:45;26.00;73.70
6690;DHT22;3382;51.576;8.076;2023-06-14T13:53:11;26.00;72.00
6690;DHT22;3382;51.576;8.076;2023-06-14T13:55:37;26.20;82.00
6690;DHT22;3382;51.576;8.076;2023-06-14T13:58:02;26.40;89.80
6690;DHT22;3382;51.576;8.076;2023-06-14T14:00:28;26.60;82.30
6690;DHT22;3382;51.576;8.076;2023-06-14T14:02:54;26.40;74.60
6690;DHT22;3382;51.576;8.076;2023-06-14T14:05:20;26.30;73.10
6690;DHT22;3382;51.576;8.076;2023-06-14T14:07:46;26.30;72.40
6690;DHT22;3382;51.576;8.076;2023-06-14T14:10:12;26.30;74.50
6690;DHT22;3382;51.576;8.076;2023-06-14T14:12:38;26.20;71.70
6690;DHT22;3382;51.576;8.076;2023-06-14T14:15:05;26.20;72.50
6690;DHT22;3382;51.576;8.076;2023-06-14T14:17:37;26.10;70.90
6690;DHT22;3382;51.576;8.076;2023-06-14T14:20:03;26.10;70.90
6690;DHT22;3382;51.576;8.076;2023-06-14T14:22:29;26.00;69.70
6690;DHT22;3382;51.576;8.076;2023-06-14T14:24:54;25.90;69.90
6690;DHT22;3382;51.576;8.076;2023-06-14T14:27:20;25.90;71.30
6690;DHT22;3382;51.576;8.076;2023-06-14T14:29:46;25.90;70.70
6690;DHT22;3382;51.576;8.076;2023-06-14T14:32:11;25.80;70.00
6690;DHT22;3382;51.576;8.076;2023-06-14T14:34:39;26.00;74.70
6690;DHT22;3382;51.576;8.076;2023-06-14T14:37:05;25.90;70.90
6690;DHT22;3382;51.576;8.076;2023-06-14T14:39:31;25.80;71.00
6690;DHT22;3382;51.576;8.076;2023-06-14T14:41:56;25.70;71.60
6690;DHT22;3382;51.576;8.076;2023-06-14T14:44:22;25.70;72.70
6690;DHT22;3382;51.576;8.076;2023-06-14T14:46:47;25.80;72.70
6690;DHT22;3382;51.576;8.076;2023-06-14T14:49:13;25.80;71.30
6690;DHT22;3382;51.576;8.076;2023-06-14T14:51:39;25.90;74.30
6690;DHT22;3382;51.576;8.076;2023-06-14T14:54:05;25.90;73.70
6690;DHT22;3382;51.576;8.076;2023-06-14T14:56:31;25.80;71.90
6690;DHT22;3382;51.576;8.076;2023-06-14T14:58:57;25.80;73.20
6690;DHT22;3382;51.576;8.076;2023-06-14T15:01:22;25.90;74.60
6690;DHT22;3382;51.576;8.076;2023-06-14T15:03:48;26.10;80.80
6690;DHT22;3382;51.576;8.076;2023-06-14T15:06:14;26.10;78.00
6690;DHT22;3382;51.576;8.076;2023-06-14T15:08:39;26.10;83.70
6690;DHT22;3382;51.576;8.076;2023-06-14T15:11:05;26.10;78.10
6690;DHT22;3382;51.576;8.076;2023-06-14T15:13:32;25.90;76.70
6690;DHT22;3382;51.576;8.076;2023-06-14T15:15:57;25.80;75.00
6690;DHT22;3382;51.576;8.076;2023-06-14T15:18:23;25.70;74.40
6690;DHT22;3382;51.576;8.076;2023-06-14T15:20:49;25.70;74.30
6690;DHT22;3382;51.576;8.076;2023-06-14T15:23:15;25.60;73.70
6690;DHT22;3382;51.576;8.076;2023-06-14T15:25:45;26.00;90.00
6690;DHT22;3382;51.576;8.076;2023-06-14T15:28:12;26.20;85.00
6690;DHT22;3382;51.576;8.076;2023-06-14T15:30:37;26.10;81.40
6690;DHT22;3382;51.576;8.076;2023-06-14T15:33:03;26.10;78.90
6690;DHT22;3382;51.576;8.076;2023-06-14T15:35:28;25.90;75.60
6690;DHT22;3382;51.576;8.076;2023-06-14T15:37:54;25.80;77.10
6690;DHT22;3382;51.576;8.076;2023-06-14T15:40:20;25.80;79.40
6690;DHT22;3382;51.576;8.076;2023-06-14T15:42:46;25.90;83.50
6690;DHT22;3382;51.576;8.076;2023-06-14T15:45:11;26.20;88.70
6690;DHT22;3382;51.576;8.076;2023-06-14T15:47:37;26.30;88.20
6690;DHT22;3382;51.576;8.076;2023-06-14T15:50:03;26.10;80.00
6690;DHT22;3382;51.576;8.076;2023-06-14T15:52:30;25.90;77.00
6690;DHT22;3382;51.576;8.076;2023-06-14T15:54:56;25.80;81.00
6690;DHT22;3382;51.576;8.076;2023-06-14T15:57:21;25.90;81.40
6690;DHT22;3382;51.576;8.076;2023-06-14T15:59:47;25.90;80.10
6690;DHT22;3382;51.576;8.076;2023-06-14T16:02:12;25.90;78.30
6690;DHT22;3382;51.576;8.076;2023-06-14T16:04:38;25.80;76.10
6690;DHT22;3382;51.576;8.076;2023-06-14T16:07:04;25.50;74.10
6690;DHT22;3382;51.576;8.076;2023-06-14T16:09:30;25.20;74.60
6690;DHT22;3382;51.576;8.076;2023-06-14T16:11:55;25.00;75.10
6690;DHT22;3382;51.576;8.076;2023-06-14T16:14:22;24.90;76.30
6690;DHT22;3382;51.576;8.076;2023-06-14T16:16:48;24.80;76.90
6690;DHT22;3382;51.576;8.076;2023-06-14T16:19:13;25.00;77.50
6690;DHT22;3382;51.576;8.076;2023-06-14T16:21:39;25.10;78.00
6690;DHT22;3382;51.576;8.076;2023-06-14T16:24:05;25.20;77.50
6690;DHT22;3382;51.576;8.076;2023-06-14T16:26:31;25.20;76.80